sensor_id;sensor_type;location;lat;lon;timestamp;P1;durP1;ratioP1;P2;durP2;ratioP2
71763;SDS011;59602;52.142;5.408;2024-01-07T00:00:05;9.80;;;4.85;;
71763;SDS011;59602;52.142;5.408;2024-01-07T00:02:32;12.45;;;5.07;;
71763;SDS011;59602;52.142;5.408;2024-01-07T00:04:58;10.70;;;4.70;;
71763;SDS011;59602;52.142;5.408;2024-01-07T00:07:28;12.93;;;5.00;;
71763;SDS011;59602;52.142;5.408;2024-01-07T00:09:55;10.77;;;4.60;;
71763;SDS011;59602;52.142;5.408;2024-01-07T00:12:21;10.18;;;4.57;;
71763;SDS011;59602;52.142;5.408;2024-01-07T00:14:48;9.95;;;4.68;;
71763;SDS011;59602;52.142;5.408;2024-01-07T00:17:15;8.85;;;4.13;;
71763;SDS011;59602;52.142;5.408;2024-01-07T00:19:42;8.57;;;4.20;;
71763;SDS011;59602;52.142;5.408;2024-01-07T00:22:09;8.55;;;4.47;;
71763;SDS011;59602;52.142;5.408;2024-01-07T00:24:36;9.10;;;4.43;;
71763;SDS011;59602;52.142;5.408;2024-01-07T00:27:02;9.80;;;5.18;;
71763;SDS011;59602;52.142;5.408;2024-01-07T00:29:29;9.18;;;4.47;;
71763;SDS011;59602;52.142;5.408;2024-01-07T00:31:56;11.17;;;4.57;;
71763;SDS011;59602;52.142;5.408;2024-01-07T00:34:23;10.32;;;5.13;;
71763;SDS011;59602;52.142;5.408;2024-01-07T00:36:50;9.50;;;4.70;;
71763;SDS011;59602;52.142;5.408;2024-01-07T00:39:17;9.40;;;4.55;;
71763;SDS011;59602;52.142;5.408;2024-01-07T00:41:44;8.50;;;3.95;;
71763;SDS011;59602;52.142;5.408;2024-01-07T00:44:10;9.10;;;4.10;;
71763;SDS011;59602;52.142;5.408;2024-01-07T00:46:38;10.38;;;4.50;;
71763;SDS011;59602;52.142;5.408;2024-01-07T00:49:04;10.93;;;4.40;;
71763;SDS011;59602;52.142;5.408;2024-01-07T00:51:31;9.68;;;5.10;;
71763;SDS011;59602;52.142;5.408;2024-01-07T00:53:58;8.23;;;3.63;;
71763;SDS011;59602;52.142;5.408;2024-01-07T00:56:25;9.57;;;4.30;;
71763;SDS011;59602;52.142;5.408;2024-01-07T00:58:53;9.23;;;4.03;;
71763;SDS011;59602;52.142;5.408;2024-01-07T01:01:19;11.07;;;4.80;;
71763;SDS011;59602;52.142;5.408;2024-01-07T01:03:46;10.75;;;4.70;;
71763;SDS011;59602;52.142;5.408;2024-01-07T01:06:13;10.38;;;4.35;;
71763;SDS011;59602;52.142;5.408;2024-01-07T01:08:40;10.23;;;4.63;;
71763;SDS011;59602;52.142;5.408;2024-01-07T01:11:10;10.02;;;5.10;;
71763;SDS011;59602;52.142;5.408;2024-01-07T01:13:37;11.70;;;4.80;;
71763;SDS011;59602;52.142;5.408;2024-01-07T01:16:04;11.82;;;4.90;;
71763;SDS011;59602;52.142;5.408;2024-01-07T01:18:31;11.93;;;5.18;;
71763;SDS011;59602;52.142;5.408;2024-01-07T01:20:58;10.07;;;4.40;;
71763;SDS011;59602;52.142;5.408;2024-01-07T01:23:24;9.85;;;4.75;;
71763;SDS011;59602;52.142;5.408;2024-01-07T01:25:51;11.57;;;4.97;;
71763;SDS011;59602;52.142;5.408;2024-01-07T01:28:18;10.70;;;5.03;;
71763;SDS011;59602;52.142;5.408;2024-01-07T01:30:45;11.15;;;4.80;;
71763;SDS011;59602;52.142;5.408;2024-01-07T01:33:11;10.73;;;5.10;;
71763;SDS011;59602;52.142;5.408;2024-01-07T01:35:38;12.93;;;5.25;;
71763;SDS011;59602;52.142;5.408;2024-01-07T01:38:05;12.30;;;5.35;;
71763;SDS011;59602;52.142;5.408;2024-01-07T01:40:32;15.35;;;5.60;;
71763;SDS011;59602;52.142;5.408;2024-01-07T01:42:58;12.57;;;5.72;;
71763;SDS011;59602;52.142;5.408;2024-01-07T01:45:25;12.80;;;5.00;;
71763;SDS011;59602;52.142;5.408;2024-01-07T01:47:52;10.88;;;5.25;;
71763;SDS011;59602;52.142;5.408;2024-01-07T01:50:19;12.00;;;6.30;;
71763;SDS011;59602;52.142;5.408;2024-01-07T01:52:45;12.82;;;5.28;;
71763;SDS011;59602;52.142;5.408;2024-01-07T01:55:13;11.18;;;5.63;;
71763;SDS011;59602;52.142;5.408;2024-01-07T01:57:40;13.47;;;6.30;;
71763;SDS011;59602;52.142;5.408;2024-01-07T02:00:07;15.60;;;6.32;;
71763;SDS011;59602;52.142;5.408;2024-01-07T02:02:34;13.38;;;6.10;;
71763;SDS011;59602;52.142;5.408;2024-01-07T02:05:02;12.90;;;6.03;;
71763;SDS011;59602;52.142;5.408;2024-01-07T02:07:29;13.63;;;5.85;;
71763;SDS011;59602;52.142;5.408;2024-01-07T02:09:57;13.50;;;5.87;;
71763;SDS011;59602;52.142;5.408;2024-01-07T02:12:24;16.90;;;5.82;;
71763;SDS011;59602;52.142;5.408;2024-01-07T02:14:51;15.73;;;6.72;;
71763;SDS011;59602;52.142;5.408;2024-01-07T02:17:18;14.93;;;6.78;;
71763;SDS011;59602;52.142;5.408;2024-01-07T02:19:46;13.38;;;5.82;;
71763;SDS011;59602;52.142;5.408;2024-01-07T02:22:13;15.67;;;6.90;;
71763;SDS011;59602;52.142;5.408;2024-01-07T02:24:40;13.63;;;6.13;;
71763;SDS011;59602;52.142;5.408;2024-01-07T02:27:07;12.93;;;6.18;;
71763;SDS011;59602;52.142;5.408;2024-01-07T02:29:34;14.25;;;6.57;;
71763;SDS011;59602;52.142;5.408;2024-01-07T02:32:01;15.50;;;6.93;;
71763;SDS011;59602;52.142;5.408;2024-01-07T02:34:28;15.17;;;6.07;;
71763;SDS011;59602;52.142;5.408;2024-01-07T02:36:55;14.57;;;6.10;;
71763;SDS011;59602;52.142;5.408;2024-01-07T02:39:22;15.27;;;6.63;;
71763;SDS011;59602;52.142;5.408;2024-01-07T02:41:49;13.65;;;6.25;;
71763;SDS011;59602;52.142;5.408;2024-01-07T02:44:16;14.23;;;6.35;;
71763;SDS011;59602;52.142;5.408;2024-01-07T02:46:43;13.77;;;6.33;;
71763;SDS011;59602;52.142;5.408;2024-01-07T02:49:09;14.52;;;6.20;;
71763;SDS011;59602;52.142;5.408;2024-01-07T02:51:36;15.20;;;6.57;;
71763;SDS011;59602;52.142;5.408;2024-01-07T02:54:03;13.20;;;5.72;;
71763;SDS011;59602;52.142;5.408;2024-01-07T02:56:30;15.75;;;6.20;;
71763;SDS011;59602;52.142;5.408;2024-01-07T02:58:56;15.97;;;7.03;;
71763;SDS011;59602;52.142;5.408;2024-01-07T03:01:23;15.20;;;6.40;;
71763;SDS011;59602;52.142;5.408;2024-01-07T03:03:50;14.65;;;6.15;;
71763;SDS011;59602;52.142;5.408;2024-01-07T03:06:17;14.13;;;6.38;;
71763;SDS011;59602;52.142;5.408;2024-01-07T03:08:44;14.63;;;6.50;;
71763;SDS011;59602;52.142;5.408;2024-01-07T03:11:11;13.97;;;6.00;;
71763;SDS011;59602;52.142;5.408;2024-01-07T03:13:38;13.38;;;6.40;;
71763;SDS011;59602;52.142;5.408;2024-01-07T03:16:06;13.68;;;5.68;;
71763;SDS011;59602;52.142;5.408;2024-01-07T03:18:33;13.05;;;5.45;;
71763;SDS011;59602;52.142;5.408;2024-01-07T03:21:00;13.23;;;6.05;;
71763;SDS011;59602;52.142;5.408;2024-01-07T03:23:26;15.07;;;6.40;;
71763;SDS011;59602;52.142;5.408;2024-01-07T03:25:53;13.57;;;6.13;;
71763;SDS011;59602;52.142;5.408;2024-01-07T03:28:20;15.50;;;6.32;;
71763;SDS011;59602;52.142;5.408;2024-01-07T03:30:46;13.77;;;6.00;;
71763;SDS011;59602;52.142;5.408;2024-01-07T03:33:13;14.95;;;5.95;;
71763;SDS011;59602;52.142;5.408;2024-01-07T03:35:40;13.47;;;5.67;;
71763;SDS011;59602;52.142;5.408;2024-01-07T03:38:07;14.38;;;7.00;;
71763;SDS011;59602;52.142;5.408;2024-01-07T03:40:33;15.25;;;6.72;;
71763;SDS011;59602;52.142;5.408;2024-01-07T03:43:00;15.98;;;6.53;;
71763;SDS011;59602;52.142;5.408;2024-01-07T03:45:27;16.00;;;6.70;;
71763;SDS011;59602;52.142;5.408;2024-01-07T03:47:56;14.60;;;6.07;;
71763;SDS011;59602;52.142;5.408;2024-01-07T03:50:22;15.70;;;6.10;;
71763;SDS011;59602;52.142;5.408;2024-01-07T03:52:49;13.90;;;5.90;;
71763;SDS011;59602;52.142;5.408;2024-01-07T03:55:16;12.60;;;5.93;;
71763;SDS011;59602;52.142;5.408;2024-01-07T03:57:43;14.45;;;6.47;;
71763;SDS011;59602;52.142;5.408;2024-01-07T04:00:10;14.73;;;6.47;;
71763;SDS011;59602;52.142;5.408;2024-01-07T04:02:37;16.30;;;6.38;;
71763;SDS011;59602;52.142;5.408;2024-01-07T04:05:04;15.95;;;6.63;;
71763;SDS011;59602;52.142;5.408;2024-01-07T04:07:31;13.73;;;6.20;;
71763;SDS011;59602;52.142;5.408;2024-01-07T04:09:58;15.63;;;6.60;;
71763;SDS011;59602;52.142;5.408;2024-01-07T04:12:24;14.80;;;6.63;;
71763;SDS011;59602;52.142;5.408;2024-01-07T04:14:51;13.30;;;6.53;;
71763;SDS011;59602;52.142;5.408;2024-01-07T04:17:18;16.70;;;7.32;;
71763;SDS011;59602;52.142;5.408;2024-01-07T04:19:45;16.20;;;7.50;;
71763;SDS011;59602;52.142;5.408;2024-01-07T04:22:11;14.02;;;6.55;;
71763;SDS011;59602;52.142;5.408;2024-01-07T04:24:40;16.53;;;7.23;;
71763;SDS011;59602;52.142;5.408;2024-01-07T04:27:08;14.98;;;6.80;;
71763;SDS011;59602;52.142;5.408;2024-01-07T04:29:35;15.57;;;6.93;;
71763;SDS011;59602;52.142;5.408;2024-01-07T04:32:02;14.43;;;5.82;;
71763;SDS011;59602;52.142;5.408;2024-01-07T04:34:29;17.33;;;6.70;;
71763;SDS011;59602;52.142;5.408;2024-01-07T04:36:56;14.87;;;6.10;;
71763;SDS011;59602;52.142;5.408;2024-01-07T04:39:22;15.80;;;6.55;;
71763;SDS011;59602;52.142;5.408;2024-01-07T04:41:49;12.23;;;5.80;;
71763;SDS011;59602;52.142;5.408;2024-01-07T04:44:16;14.90;;;6.07;;
71763;SDS011;59602;52.142;5.408;2024-01-07T04:46:43;12.85;;;6.07;;
71763;SDS011;59602;52.142;5.408;2024-01-07T04:49:10;13.73;;;6.10;;
71763;SDS011;59602;52.142;5.408;2024-01-07T04:51:37;14.10;;;6.25;;
71763;SDS011;59602;52.142;5.408;2024-01-07T04:54:04;13.05;;;5.70;;
71763;SDS011;59602;52.142;5.408;2024-01-07T04:56:32;13.10;;;5.90;;
71763;SDS011;59602;52.142;5.408;2024-01-07T04:58:59;13.70;;;5.78;;
71763;SDS011;59602;52.142;5.408;2024-01-07T05:01:26;10.73;;;5.57;;
71763;SDS011;59602;52.142;5.408;2024-01-07T05:03:52;10.43;;;5.32;;
71763;SDS011;59602;52.142;5.408;2024-01-07T05:06:19;13.75;;;5.55;;
71763;SDS011;59602;52.142;5.408;2024-01-07T05:08:46;11.30;;;5.60;;
71763;SDS011;59602;52.142;5.408;2024-01-07T05:11:12;13.85;;;5.72;;
71763;SDS011;59602;52.142;5.408;2024-01-07T05:13:39;11.20;;;5.57;;
71763;SDS011;59602;52.142;5.408;2024-01-07T05:16:06;11.70;;;5.32;;
71763;SDS011;59602;52.142;5.408;2024-01-07T05:18:33;11.55;;;5.30;;
71763;SDS011;59602;52.142;5.408;2024-01-07T05:21:00;12.65;;;5.47;;
71763;SDS011;59602;52.142;5.408;2024-01-07T05:23:27;11.35;;;5.40;;
71763;SDS011;59602;52.142;5.408;2024-01-07T05:25:53;12.63;;;5.50;;
71763;SDS011;59602;52.142;5.408;2024-01-07T05:28:20;10.02;;;4.68;;
71763;SDS011;59602;52.142;5.408;2024-01-07T05:30:48;12.45;;;5.43;;
71763;SDS011;59602;52.142;5.408;2024-01-07T05:33:15;10.73;;;4.85;;
71763;SDS011;59602;52.142;5.408;2024-01-07T05:35:42;12.23;;;5.50;;
71763;SDS011;59602;52.142;5.408;2024-01-07T05:38:09;11.00;;;5.20;;
71763;SDS011;59602;52.142;5.408;2024-01-07T05:40:36;12.18;;;5.30;;
71763;SDS011;59602;52.142;5.408;2024-01-07T05:43:02;9.38;;;4.55;;
71763;SDS011;59602;52.142;5.408;2024-01-07T05:45:29;9.73;;;4.93;;
71763;SDS011;59602;52.142;5.408;2024-01-07T05:47:56;9.50;;;4.88;;
71763;SDS011;59602;52.142;5.408;2024-01-07T05:50:23;8.50;;;4.27;;
71763;SDS011;59602;52.142;5.408;2024-01-07T05:52:49;11.00;;;5.10;;
71763;SDS011;59602;52.142;5.408;2024-01-07T05:55:16;10.40;;;5.07;;
71763;SDS011;59602;52.142;5.408;2024-01-07T05:57:43;10.05;;;5.10;;
71763;SDS011;59602;52.142;5.408;2024-01-07T06:00:10;9.60;;;5.15;;
71763;SDS011;59602;52.142;5.408;2024-01-07T06:02:38;14.57;;;5.47;;
71763;SDS011;59602;52.142;5.408;2024-01-07T06:05:06;9.82;;;5.32;;
71763;SDS011;59602;52.142;5.408;2024-01-07T06:07:33;9.85;;;5.05;;
71763;SDS011;59602;52.142;5.408;2024-01-07T06:10:00;11.20;;;5.70;;
71763;SDS011;59602;52.142;5.408;2024-01-07T06:12:27;10.32;;;4.85;;
71763;SDS011;59602;52.142;5.408;2024-01-07T06:14:54;13.90;;;5.10;;
71763;SDS011;59602;52.142;5.408;2024-01-07T06:17:21;10.27;;;5.15;;
71763;SDS011;59602;52.142;5.408;2024-01-07T06:19:47;10.90;;;4.68;;
71763;SDS011;59602;52.142;5.408;2024-01-07T06:22:14;9.85;;;5.32;;
71763;SDS011;59602;52.142;5.408;2024-01-07T06:24:41;11.73;;;5.50;;
71763;SDS011;59602;52.142;5.408;2024-01-07T06:27:08;9.77;;;4.50;;
71763;SDS011;59602;52.142;5.408;2024-01-07T06:29:35;8.25;;;4.30;;
71763;SDS011;59602;52.142;5.408;2024-01-07T06:32:02;8.38;;;4.10;;
71763;SDS011;59602;52.142;5.408;2024-01-07T06:34:30;9.68;;;4.93;;
71763;SDS011;59602;52.142;5.408;2024-01-07T06:36:57;8.60;;;4.63;;
71763;SDS011;59602;52.142;5.408;2024-01-07T06:39:24;9.50;;;4.47;;
71763;SDS011;59602;52.142;5.408;2024-01-07T06:41:53;9.13;;;4.38;;
71763;SDS011;59602;52.142;5.408;2024-01-07T06:44:20;9.88;;;4.53;;
71763;SDS011;59602;52.142;5.408;2024-01-07T06:46:47;24.60;;;14.02;;
71763;SDS011;59602;52.142;5.408;2024-01-07T06:49:13;12.50;;;5.60;;
71763;SDS011;59602;52.142;5.408;2024-01-07T06:51:40;15.33;;;7.53;;
71763;SDS011;59602;52.142;5.408;2024-01-07T06:54:07;12.75;;;5.90;;
71763;SDS011;59602;52.142;5.408;2024-01-07T06:56:37;19.02;;;9.77;;
71763;SDS011;59602;52.142;5.408;2024-01-07T06:59:04;15.45;;;7.90;;
71763;SDS011;59602;52.142;5.408;2024-01-07T07:01:31;10.98;;;6.18;;
71763;SDS011;59602;52.142;5.408;2024-01-07T07:03:58;19.27;;;10.57;;
71763;SDS011;59602;52.142;5.408;2024-01-07T07:06:25;12.98;;;6.90;;
71763;SDS011;59602;52.142;5.408;2024-01-07T07:08:52;34.80;;;20.75;;
71763;SDS011;59602;52.142;5.408;2024-01-07T07:11:19;13.00;;;7.57;;
71763;SDS011;59602;52.142;5.408;2024-01-07T07:13:51;10.85;;;5.22;;
71763;SDS011;59602;52.142;5.408;2024-01-07T07:16:41;15.30;;;10.53;;
71763;SDS011;59602;52.142;5.408;2024-01-07T07:20:00;11.80;;;6.22;;
71763;SDS011;59602;52.142;5.408;2024-01-07T07:22:36;16.65;;;9.10;;
71763;SDS011;59602;52.142;5.408;2024-01-07T07:39:05;10.70;;;5.32;;
71763;SDS011;59602;52.142;5.408;2024-01-07T07:41:31;11.32;;;6.80;;
71763;SDS011;59602;52.142;5.408;2024-01-07T07:43:58;13.95;;;6.45;;
71763;SDS011;59602;52.142;5.408;2024-01-07T07:46:25;10.67;;;5.23;;
71763;SDS011;59602;52.142;5.408;2024-01-07T07:48:51;11.27;;;6.40;;
71763;SDS011;59602;52.142;5.408;2024-01-07T07:51:18;10.15;;;4.20;;
71763;SDS011;59602;52.142;5.408;2024-01-07T07:53:45;9.73;;;4.72;;
71763;SDS011;59602;52.142;5.408;2024-01-07T07:56:12;9.68;;;5.18;;
71763;SDS011;59602;52.142;5.408;2024-01-07T07:58:39;9.60;;;4.67;;
71763;SDS011;59602;52.142;5.408;2024-01-07T08:01:06;9.23;;;4.45;;
71763;SDS011;59602;52.142;5.408;2024-01-07T08:03:33;8.73;;;4.40;;
71763;SDS011;59602;52.142;5.408;2024-01-07T08:06:01;10.68;;;4.70;;
71763;SDS011;59602;52.142;5.408;2024-01-07T08:08:28;10.95;;;4.53;;
71763;SDS011;59602;52.142;5.408;2024-01-07T08:10:54;10.57;;;5.10;;
71763;SDS011;59602;52.142;5.408;2024-01-07T08:13:21;10.65;;;4.90;;
71763;SDS011;59602;52.142;5.408;2024-01-07T08:15:48;9.27;;;4.15;;
71763;SDS011;59602;52.142;5.408;2024-01-07T08:18:14;8.85;;;4.32;;
71763;SDS011;59602;52.142;5.408;2024-01-07T08:20:42;8.60;;;4.60;;
71763;SDS011;59602;52.142;5.408;2024-01-07T08:23:08;7.27;;;3.93;;
71763;SDS011;59602;52.142;5.408;2024-01-07T08:25:36;8.07;;;5.18;;
71763;SDS011;59602;52.142;5.408;2024-01-07T08:28:05;8.65;;;4.40;;
71763;SDS011;59602;52.142;5.408;2024-01-07T08:30:32;8.05;;;4.15;;
71763;SDS011;59602;52.142;5.408;2024-01-07T08:32:59;8.18;;;4.18;;
71763;SDS011;59602;52.142;5.408;2024-01-07T08:35:34;7.07;;;4.00;;
71763;SDS011;59602;52.142;5.408;2024-01-07T08:38:01;8.30;;;4.70;;
71763;SDS011;59602;52.142;5.408;2024-01-07T08:40:27;8.50;;;4.35;;
71763;SDS011;59602;52.142;5.408;2024-01-07T08:42:55;8.57;;;4.25;;
71763;SDS011;59602;52.142;5.408;2024-01-07T08:45:22;8.07;;;3.78;;
71763;SDS011;59602;52.142;5.408;2024-01-07T08:47:49;8.20;;;4.97;;
71763;SDS011;59602;52.142;5.408;2024-01-07T08:50:16;8.18;;;4.28;;
71763;SDS011;59602;52.142;5.408;2024-01-07T08:52:43;8.20;;;4.18;;
71763;SDS011;59602;52.142;5.408;2024-01-07T08:55:10;7.72;;;3.97;;
71763;SDS011;59602;52.142;5.408;2024-01-07T08:57:37;8.65;;;3.60;;
71763;SDS011;59602;52.142;5.408;2024-01-07T09:00:05;8.03;;;3.70;;
71763;SDS011;59602;52.142;5.408;2024-01-07T09:02:34;5.90;;;3.45;;
71763;SDS011;59602;52.142;5.408;2024-01-07T09:05:06;7.88;;;3.15;;
71763;SDS011;59602;52.142;5.408;2024-01-07T09:07:34;7.35;;;3.15;;
71763;SDS011;59602;52.142;5.408;2024-01-07T09:10:01;7.47;;;3.47;;
71763;SDS011;59602;52.142;5.408;2024-01-07T09:12:31;7.57;;;3.10;;
71763;SDS011;59602;52.142;5.408;2024-01-07T09:15:00;8.77;;;3.40;;
71763;SDS011;59602;52.142;5.408;2024-01-07T09:17:29;7.63;;;3.78;;
71763;SDS011;59602;52.142;5.408;2024-01-07T09:19:56;8.70;;;3.88;;
71763;SDS011;59602;52.142;5.408;2024-01-07T09:22:23;8.20;;;3.20;;
71763;SDS011;59602;52.142;5.408;2024-01-07T09:24:50;11.77;;;5.27;;
71763;SDS011;59602;52.142;5.408;2024-01-07T09:27:19;7.13;;;4.43;;
71763;SDS011;59602;52.142;5.408;2024-01-07T09:29:46;9.63;;;4.43;;
71763;SDS011;59602;52.142;5.408;2024-01-07T09:32:12;11.30;;;5.97;;
71763;SDS011;59602;52.142;5.408;2024-01-07T09:34:39;8.65;;;4.75;;
71763;SDS011;59602;52.142;5.408;2024-01-07T09:37:06;8.80;;;4.87;;
71763;SDS011;59602;52.142;5.408;2024-01-07T09:39:33;9.98;;;5.45;;
71763;SDS011;59602;52.142;5.408;2024-01-07T09:41:59;9.45;;;4.15;;
71763;SDS011;59602;52.142;5.408;2024-01-07T09:44:27;5.63;;;3.25;;
71763;SDS011;59602;52.142;5.408;2024-01-07T09:46:54;5.72;;;3.00;;
71763;SDS011;59602;52.142;5.408;2024-01-07T09:49:21;10.60;;;4.33;;
71763;SDS011;59602;52.142;5.408;2024-01-07T09:51:49;7.53;;;3.03;;
71763;SDS011;59602;52.142;5.408;2024-01-07T09:54:20;5.65;;;2.85;;
71763;SDS011;59602;52.142;5.408;2024-01-07T09:56:50;6.25;;;2.90;;
71763;SDS011;59602;52.142;5.408;2024-01-07T09:59:21;7.18;;;2.85;;
71763;SDS011;59602;52.142;5.408;2024-01-07T10:01:49;5.73;;;3.10;;
71763;SDS011;59602;52.142;5.408;2024-01-07T10:04:21;5.03;;;2.60;;
71763;SDS011;59602;52.142;5.408;2024-01-07T10:06:51;5.15;;;1.85;;
71763;SDS011;59602;52.142;5.408;2024-01-07T10:09:30;5.30;;;1.92;;
71763;SDS011;59602;52.142;5.408;2024-01-07T10:11:59;6.30;;;2.00;;
71763;SDS011;59602;52.142;5.408;2024-01-07T10:14:27;6.97;;;3.30;;
71763;SDS011;59602;52.142;5.408;2024-01-07T10:16:57;8.95;;;3.60;;
71763;SDS011;59602;52.142;5.408;2024-01-07T10:19:24;4.40;;;2.15;;
71763;SDS011;59602;52.142;5.408;2024-01-07T10:22:03;5.70;;;2.22;;
71763;SDS011;59602;52.142;5.408;2024-01-07T10:24:35;8.27;;;1.92;;
71763;SDS011;59602;52.142;5.408;2024-01-07T10:27:08;5.53;;;1.80;;
71763;SDS011;59602;52.142;5.408;2024-01-07T10:29:35;5.80;;;1.83;;
71763;SDS011;59602;52.142;5.408;2024-01-07T10:32:02;5.30;;;1.58;;
71763;SDS011;59602;52.142;5.408;2024-01-07T10:34:33;4.05;;;1.58;;
71763;SDS011;59602;52.142;5.408;2024-01-07T10:37:02;5.63;;;1.50;;
71763;SDS011;59602;52.142;5.408;2024-01-07T10:39:32;4.17;;;1.00;;
71763;SDS011;59602;52.142;5.408;2024-01-07T10:41:59;2.90;;;1.23;;
71763;SDS011;59602;52.142;5.408;2024-01-07T10:44:26;3.20;;;1.25;;
71763;SDS011;59602;52.142;5.408;2024-01-07T10:46:56;2.90;;;1.40;;
71763;SDS011;59602;52.142;5.408;2024-01-07T10:49:25;4.38;;;1.40;;
71763;SDS011;59602;52.142;5.408;2024-01-07T10:52:13;4.90;;;1.10;;
71763;SDS011;59602;52.142;5.408;2024-01-07T10:55:43;3.80;;;0.90;;
71763;SDS011;59602;52.142;5.408;2024-01-07T10:58:28;3.33;;;1.10;;
71763;SDS011;59602;52.142;5.408;2024-01-07T11:00:56;3.65;;;0.95;;
71763;SDS011;59602;52.142;5.408;2024-01-07T11:06:31;3.93;;;0.80;;
71763;SDS011;59602;52.142;5.408;2024-01-07T11:12:00;3.17;;;1.00;;
71763;SDS011;59602;52.142;5.408;2024-01-07T11:14:37;2.42;;;0.90;;
71763;SDS011;59602;52.142;5.408;2024-01-07T11:17:06;3.03;;;0.95;;
71763;SDS011;59602;52.142;5.408;2024-01-07T11:19:37;7.70;;;3.17;;
71763;SDS011;59602;52.142;5.408;2024-01-07T11:22:23;3.30;;;1.52;;
71763;SDS011;59602;52.142;5.408;2024-01-07T11:24:51;4.22;;;2.17;;
71763;SDS011;59602;52.142;5.408;2024-01-07T11:27:20;3.95;;;1.40;;
71763;SDS011;59602;52.142;5.408;2024-01-07T11:32:23;5.90;;;1.13;;
71763;SDS011;59602;52.142;5.408;2024-01-07T11:34:54;2.95;;;0.93;;
71763;SDS011;59602;52.142;5.408;2024-01-07T11:37:23;2.58;;;0.60;;
71763;SDS011;59602;52.142;5.408;2024-01-07T11:39:55;2.20;;;0.60;;
71763;SDS011;59602;52.142;5.408;2024-01-07T11:42:24;1.92;;;0.60;;
71763;SDS011;59602;52.142;5.408;2024-01-07T11:44:52;3.20;;;0.70;;
71763;SDS011;59602;52.142;5.408;2024-01-07T11:47:20;1.88;;;0.68;;
71763;SDS011;59602;52.142;5.408;2024-01-07T11:49:48;3.20;;;0.55;;
71763;SDS011;59602;52.142;5.408;2024-01-07T11:52:16;1.17;;;0.30;;
71763;SDS011;59602;52.142;5.408;2024-01-07T11:54:43;3.22;;;2.00;;
71763;SDS011;59602;52.142;5.408;2024-01-07T11:57:10;2.13;;;0.50;;
71763;SDS011;59602;52.142;5.408;2024-01-07T11:59:37;2.42;;;1.08;;
71763;SDS011;59602;52.142;5.408;2024-01-07T12:02:09;4.10;;;1.10;;
71763;SDS011;59602;52.142;5.408;2024-01-07T12:04:36;4.47;;;2.55;;
71763;SDS011;59602;52.142;5.408;2024-01-07T12:07:04;2.45;;;1.05;;
71763;SDS011;59602;52.142;5.408;2024-01-07T12:09:33;2.43;;;0.70;;
71763;SDS011;59602;52.142;5.408;2024-01-07T12:12:00;3.25;;;0.85;;
71763;SDS011;59602;52.142;5.408;2024-01-07T12:14:27;1.80;;;0.50;;
71763;SDS011;59602;52.142;5.408;2024-01-07T12:16:55;1.90;;;0.70;;
71763;SDS011;59602;52.142;5.408;2024-01-07T12:19:22;2.47;;;0.50;;
71763;SDS011;59602;52.142;5.408;2024-01-07T12:22:00;2.33;;;0.80;;
71763;SDS011;59602;52.142;5.408;2024-01-07T12:24:33;2.28;;;0.50;;
71763;SDS011;59602;52.142;5.408;2024-01-07T12:27:03;3.13;;;0.50;;
71763;SDS011;59602;52.142;5.408;2024-01-07T12:29:31;1.63;;;0.35;;
71763;SDS011;59602;52.142;5.408;2024-01-07T12:31:58;1.90;;;0.47;;
71763;SDS011;59602;52.142;5.408;2024-01-07T12:34:26;1.57;;;0.20;;
71763;SDS011;59602;52.142;5.408;2024-01-07T12:36:54;1.83;;;0.30;;
71763;SDS011;59602;52.142;5.408;2024-01-07T12:39:21;2.50;;;0.40;;
71763;SDS011;59602;52.142;5.408;2024-01-07T12:41:52;1.83;;;0.30;;
71763;SDS011;59602;52.142;5.408;2024-01-07T12:44:19;1.60;;;0.30;;
71763;SDS011;59602;52.142;5.408;2024-01-07T12:46:45;0.97;;;0.20;;
71763;SDS011;59602;52.142;5.408;2024-01-07T12:49:15;2.97;;;0.45;;
71763;SDS011;59602;52.142;5.408;2024-01-07T12:51:43;2.03;;;0.38;;
71763;SDS011;59602;52.142;5.408;2024-01-07T12:54:10;2.28;;;0.30;;
71763;SDS011;59602;52.142;5.408;2024-01-07T12:56:37;1.83;;;0.28;;
71763;SDS011;59602;52.142;5.408;2024-01-07T12:59:04;1.87;;;0.33;;
71763;SDS011;59602;52.142;5.408;2024-01-07T13:01:30;1.88;;;0.30;;
71763;SDS011;59602;52.142;5.408;2024-01-07T13:03:57;1.90;;;0.40;;
71763;SDS011;59602;52.142;5.408;2024-01-07T13:06:30;5.80;;;1.20;;
71763;SDS011;59602;52.142;5.408;2024-01-07T13:08:57;4.18;;;1.88;;
71763;SDS011;59602;52.142;5.408;2024-01-07T13:13:59;2.95;;;0.40;;
71763;SDS011;59602;52.142;5.408;2024-01-07T13:16:36;1.85;;;1.02;;
71763;SDS011;59602;52.142;5.408;2024-01-07T13:19:03;2.38;;;0.32;;
71763;SDS011;59602;52.142;5.408;2024-01-07T13:21:30;1.13;;;0.30;;
71763;SDS011;59602;52.142;5.408;2024-01-07T13:23:58;3.80;;;0.90;;
71763;SDS011;59602;52.142;5.408;2024-01-07T13:26:27;6.68;;;2.58;;
71763;SDS011;59602;52.142;5.408;2024-01-07T13:28:54;8.05;;;3.13;;
71763;SDS011;59602;52.142;5.408;2024-01-07T13:31:20;18.10;;;8.98;;
71763;SDS011;59602;52.142;5.408;2024-01-07T13:33:47;1.35;;;0.30;;
71763;SDS011;59602;52.142;5.408;2024-01-07T13:36:14;4.17;;;1.40;;
71763;SDS011;59602;52.142;5.408;2024-01-07T13:38:41;3.05;;;0.88;;
71763;SDS011;59602;52.142;5.408;2024-01-07T13:41:11;6.72;;;2.95;;
71763;SDS011;59602;52.142;5.408;2024-01-07T13:43:40;4.60;;;1.33;;
71763;SDS011;59602;52.142;5.408;2024-01-07T13:46:07;3.85;;;0.85;;
71763;SDS011;59602;52.142;5.408;2024-01-07T13:48:34;1.57;;;0.30;;
71763;SDS011;59602;52.142;5.408;2024-01-07T13:51:01;7.03;;;2.15;;
71763;SDS011;59602;52.142;5.408;2024-01-07T13:53:29;8.95;;;3.80;;
71763;SDS011;59602;52.142;5.408;2024-01-07T13:55:55;2.13;;;0.75;;
71763;SDS011;59602;52.142;5.408;2024-01-07T13:58:22;2.95;;;0.60;;
71763;SDS011;59602;52.142;5.408;2024-01-07T14:00:50;2.93;;;1.37;;
71763;SDS011;59602;52.142;5.408;2024-01-07T14:03:19;2.45;;;0.30;;
71763;SDS011;59602;52.142;5.408;2024-01-07T14:05:46;2.60;;;0.70;;
71763;SDS011;59602;52.142;5.408;2024-01-07T14:08:13;1.58;;;0.30;;
71763;SDS011;59602;52.142;5.408;2024-01-07T14:10:55;1.33;;;0.40;;
71763;SDS011;59602;52.142;5.408;2024-01-07T14:13:40;1.93;;;0.40;;
71763;SDS011;59602;52.142;5.408;2024-01-07T14:16:14;0.82;;;0.20;;
71763;SDS011;59602;52.142;5.408;2024-01-07T14:18:42;1.73;;;0.50;;
71763;SDS011;59602;52.142;5.408;2024-01-07T14:21:32;6.13;;;5.53;;
71763;SDS011;59602;52.142;5.408;2024-01-07T14:23:58;4.03;;;2.10;;
71763;SDS011;59602;52.142;5.408;2024-01-07T14:26:25;3.93;;;2.10;;
71763;SDS011;59602;52.142;5.408;2024-01-07T14:28:52;1.65;;;0.63;;
71763;SDS011;59602;52.142;5.408;2024-01-07T14:31:38;2.63;;;1.25;;
71763;SDS011;59602;52.142;5.408;2024-01-07T14:34:05;1.73;;;0.30;;
71763;SDS011;59602;52.142;5.408;2024-01-07T14:36:32;1.30;;;0.20;;
71763;SDS011;59602;52.142;5.408;2024-01-07T14:38:59;0.90;;;0.23;;
71763;SDS011;59602;52.142;5.408;2024-01-07T14:41:26;1.25;;;0.25;;
71763;SDS011;59602;52.142;5.408;2024-01-07T14:43:53;1.50;;;0.30;;
71763;SDS011;59602;52.142;5.408;2024-01-07T14:46:20;1.70;;;0.30;;
71763;SDS011;59602;52.142;5.408;2024-01-07T14:48:47;0.80;;;0.13;;
71763;SDS011;59602;52.142;5.408;2024-01-07T14:51:14;2.63;;;1.03;;
71763;SDS011;59602;52.142;5.408;2024-01-07T14:53:40;1.73;;;0.47;;
71763;SDS011;59602;52.142;5.408;2024-01-07T14:56:08;1.35;;;0.30;;
71763;SDS011;59602;52.142;5.408;2024-01-07T14:58:35;1.90;;;0.73;;
71763;SDS011;59602;52.142;5.408;2024-01-07T15:01:02;1.55;;;0.50;;
71763;SDS011;59602;52.142;5.408;2024-01-07T15:03:29;2.20;;;0.40;;
71763;SDS011;59602;52.142;5.408;2024-01-07T15:05:56;1.25;;;0.20;;
71763;SDS011;59602;52.142;5.408;2024-01-07T15:08:23;3.53;;;1.23;;
71763;SDS011;59602;52.142;5.408;2024-01-07T15:10:50;1.90;;;0.40;;